sensor_id;sensor_type;location;lat;lon;timestamp;pressure;altitude;pressure_sealevel;temperature;humidity
13604;BME280;24578;48.264;11.436;2023-06-04T00:00:50;96128.22;;;12.69;100.00
13604;BME280;24578;48.264;11.436;2023-06-04T00:04:12;96127.81;;;12.64;100.00
13604;BME280;24578;48.264;11.436;2023-06-04T00:07:34;96134.19;;;12.60;100.00
13604;BME280;24578;48.264;11.436;2023-06-04T00:10:56;96128.44;;;12.56;100.00
13604;BME280;24578;48.264;11.436;2023-06-04T00:14:17;96126.91;;;12.54;100.00
13604;BME280;24578;48.264;11.436;2023-06-04T00:17:39;96132.47;;;12.49;100.00
13604;BME280;24578;48.264;11.436;2023-06-04T00:21:01;96131.09;;;12.45;100.00
13604;BME280;24578;48.264;11.436;2023-06-04T00:24:23;96125.56;;;12.38;100.00
13604;BME280;24578;48.264;11.436;2023-06-04T00:27:45;96126.63;;;12.36;100.00
13604;BME280;24578;48.264;11.436;2023-06-04T00:31:07;96127.16;;;12.29;100.00
13604;BME280;24578;48.264;11.436;2023-06-04T00:34:29;96129.28;;;12.24;100.00
13604;BME280;24578;48.264;11.436;2023-06-04T00:37:50;96126.78;;;12.23;100.00
13604;BME280;24578;48.264;11.436;2023-06-04T00:41:12;96122.13;;;12.16;100.00
13604;BME280;24578;48.264;11.436;2023-06-04T00:44:34;96133.56;;;12.14;100.00
13604;BME280;24578;48.264;11.436;2023-06-04T00:47:58;96125.19;;;12.10;100.00
13604;BME280;24578;48.264;11.436;2023-06-04T00:51:20;96132.28;;;12.08;100.00
13604;BME280;24578;48.264;11.436;2023-06-04T00:54:42;96140.31;;;12.05;100.00
13604;BME280;24578;48.264;11.436;2023-06-04T00:58:04;96132.78;;;12.02;100.00
13604;BME280;24578;48.264;11.436;2023-06-04T01:05:16;96133.13;;;11.86;100.00
13604;BME280;24578;48.264;11.436;2023-06-04T01:08:42;96130.19;;;11.79;100.00
13604;BME280;24578;48.264;11.436;2023-06-04T01:12:05;96136.81;;;11.72;100.00
13604;BME280;24578;48.264;11.436;2023-06-04T01:15:27;96131.41;;;11.75;100.00
13604;BME280;24578;48.264;11.436;2023-06-04T01:18:50;96132.00;;;11.67;100.00
13604;BME280;24578;48.264;11.436;2023-06-04T01:22:38;96135.19;;;11.60;100.00
13604;BME280;24578;48.264;11.436;2023-06-04T01:26:03;96134.25;;;11.49;100.00
13604;BME280;24578;48.264;11.436;2023-06-04T01:29:25;96136.63;;;11.41;100.00
13604;BME280;24578;48.264;11.436;2023-06-04T01:32:54;96131.19;;;11.33;100.00
13604;BME280;24578;48.264;11.436;2023-06-04T01:36:15;96132.38;;;11.29;100.00
13604;BME280;24578;48.264;11.436;2023-06-04T01:39:37;96126.81;;;11.22;100.00
13604;BME280;24578;48.264;11.436;2023-06-04T01:42:59;96131.78;;;11.14;100.00
13604;BME280;24578;48.264;11.436;2023-06-04T01:46:21;96135.88;;;11.05;100.00
13604;BME280;24578;48.264;11.436;2023-06-04T01:49:43;96136.47;;;10.97;100.00
13604;BME280;24578;48.264;11.436;2023-06-04T01:53:05;96145.66;;;10.90;100.00
13604;BME280;24578;48.264;11.436;2023-06-04T01:56:27;96146.81;;;10.86;100.00
13604;BME280;24578;48.264;11.436;2023-06-04T01:59:49;96155.88;;;10.80;100.00
13604;BME280;24578;48.264;11.436;2023-06-04T02:03:12;96151.13;;;10.74;100.00
13604;BME280;24578;48.264;11.436;2023-06-04T02:06:34;96153.13;;;10.70;100.00
13604;BME280;24578;48.264;11.436;2023-06-04T02:09:55;96150.91;;;10.65;100.00
13604;BME280;24578;48.264;11.436;2023-06-04T02:13:17;96163.47;;;10.59;100.00
13604;BME280;24578;48.264;11.436;2023-06-04T02:16:39;96154.72;;;10.48;100.00
13604;BME280;24578;48.264;11.436;2023-06-04T02:20:01;96158.34;;;10.46;100.00
13604;BME280;24578;48.264;11.436;2023-06-04T02:23:25;96153.28;;;10.44;100.00
13604;BME280;24578;48.264;11.436;2023-06-04T02:26:46;96156.19;;;10.40;100.00
13604;BME280;24578;48.264;11.436;2023-06-04T02:30:09;96160.63;;;10.38;100.00
13604;BME280;24578;48.264;11.436;2023-06-04T02:33:30;96156.63;;;10.33;100.00
13604;BME280;24578;48.264;11.436;2023-06-04T02:36:52;96161.44;;;10.27;100.00
13604;BME280;24578;48.264;11.436;2023-06-04T02:40:15;96163.50;;;10.21;100.00
13604;BME280;24578;48.264;11.436;2023-06-04T02:43:36;96161.47;;;10.14;100.00
13604;BME280;24578;48.264;11.436;2023-06-04T02:46:58;96162.53;;;10.11;100.00
13604;BME280;24578;48.264;11.436;2023-06-04T02:50:20;96165.53;;;10.05;100.00
13604;BME280;24578;48.264;11.436;2023-06-04T02:53:42;96162.44;;;10.00;100.00
13604;BME280;24578;48.264;11.436;2023-06-04T02:57:04;96169.47;;;9.98;100.00
13604;BME280;24578;48.264;11.436;2023-06-04T03:00:26;96167.22;;;9.93;100.00
13604;BME280;24578;48.264;11.436;2023-06-04T03:03:47;96169.22;;;9.89;100.00
13604;BME280;24578;48.264;11.436;2023-06-04T03:07:09;96165.31;;;9.84;100.00
13604;BME280;24578;48.264;11.436;2023-06-04T03:10:32;96162.94;;;9.81;100.00
13604;BME280;24578;48.264;11.436;2023-06-04T03:13:54;96162.22;;;9.79;100.00
13604;BME280;24578;48.264;11.436;2023-06-04T03:17:16;96171.09;;;9.74;100.00
13604;BME280;24578;48.264;11.436;2023-06-04T03:20:38;96186.63;;;9.74;100.00
13604;BME280;24578;48.264;11.436;2023-06-04T03:24:00;96177.44;;;9.70;100.00
13604;BME280;24578;48.264;11.436;2023-06-04T03:27:21;96183.44;;;9.71;100.00
13604;BME280;24578;48.264;11.436;2023-06-04T03:30:43;96181.69;;;9.71;100.00
13604;BME280;24578;48.264;11.436;2023-06-04T03:34:05;96187.47;;;9.75;100.00
13604;BME280;24578;48.264;11.436;2023-06-04T03:37:27;96195.09;;;9.77;100.00
13604;BME280;24578;48.264;11.436;2023-06-04T03:40:49;96194.88;;;9.80;100.00
13604;BME280;24578;48.264;11.436;2023-06-04T03:44:15;96198.91;;;9.84;100.00
13604;BME280;24578;48.264;11.436;2023-06-04T03:47:38;96197.31;;;9.94;100.00
13604;BME280;24578;48.264;11.436;2023-06-04T03:51:00;96197.19;;;10.33;100.00
13604;BME280;24578;48.264;11.436;2023-06-04T03:54:22;96200.97;;;10.89;100.00
13604;BME280;24578;48.264;11.436;2023-06-04T03:57:44;96196.81;;;11.45;100.00
13604;BME280;24578;48.264;11.436;2023-06-04T04:01:06;96201.84;;;11.92;100.00
13604;BME280;24578;48.264;11.436;2023-06-04T04:04:28;96200.44;;;12.22;100.00
13604;BME280;24578;48.264;11.436;2023-06-04T04:07:50;96195.81;;;12.79;100.00
13604;BME280;24578;48.264;11.436;2023-06-04T04:11:12;96190.41;;;13.55;100.00
13604;BME280;24578;48.264;11.436;2023-06-04T04:14:34;96188.41;;;14.29;100.00
13604;BME280;24578;48.264;11.436;2023-06-04T04:17:56;96185.81;;;14.98;100.00
13604;BME280;24578;48.264;11.436;2023-06-04T04:21:17;96186.00;;;15.44;100.00
13604;BME280;24578;48.264;11.436;2023-06-04T04:24:39;96190.31;;;16.01;100.00
13604;BME280;24578;48.264;11.436;2023-06-04T04:28:01;96195.81;;;16.62;100.00
13604;BME280;24578;48.264;11.436;2023-06-04T04:31:24;96190.59;;;16.98;100.00
13604;BME280;24578;48.264;11.436;2023-06-04T04:34:53;96192.56;;;17.49;90.17
13604;BME280;24578;48.264;11.436;2023-06-04T04:38:16;96197.00;;;17.91;84.28
13604;BME280;24578;48.264;11.436;2023-06-04T04:41:39;96201.38;;;18.25;79.81
13604;BME280;24578;48.264;11.436;2023-06-04T04:45:01;96194.25;;;18.85;76.25
13604;BME280;24578;48.264;11.436;2023-06-04T04:48:24;96202.91;;;19.36;70.54
13604;BME280;24578;48.264;11.436;2023-06-04T04:51:46;96206.72;;;19.81;64.04
13604;BME280;24578;48.264;11.436;2023-06-04T04:55:09;96206.81;;;20.13;60.96
13604;BME280;24578;48.264;11.436;2023-06-04T04:58:30;96205.47;;;20.48;57.78
13604;BME280;24578;48.264;11.436;2023-06-04T05:01:52;96212.03;;;20.99;55.21
13604;BME280;24578;48.264;11.436;2023-06-04T05:05:14;96216.47;;;20.98;53.57
13604;BME280;24578;48.264;11.436;2023-06-04T05:08:36;96219.41;;;21.19;52.63
13604;BME280;24578;48.264;11.436;2023-06-04T05:11:57;96220.75;;;21.38;50.75
13604;BME280;24578;48.264;11.436;2023-06-04T05:15:19;96211.34;;;21.88;46.73
13604;BME280;24578;48.264;11.436;2023-06-04T05:18:42;96214.56;;;22.20;45.73
13604;BME280;24578;48.264;11.436;2023-06-04T05:22:06;96222.44;;;22.72;44.19
13604;BME280;24578;48.264;11.436;2023-06-04T05:25:28;96227.16;;;22.77;42.84
13604;BME280;24578;48.264;11.436;2023-06-04T05:28:50;96220.09;;;23.06;41.06
13604;BME280;24578;48.264;11.436;2023-06-04T05:32:12;96221.41;;;23.38;41.17
13604;BME280;24578;48.264;11.436;2023-06-04T05:35:33;96217.59;;;24.11;38.20
13604;BME280;24578;48.264;11.436;2023-06-04T05:38:55;96221.00;;;24.54;35.72
13604;BME280;24578;48.264;11.436;2023-06-04T05:42:19;96225.56;;;24.80;35.26
13604;BME280;24578;48.264;11.436;2023-06-04T05:45:41;96224.56;;;25.21;34.44
13604;BME280;24578;48.264;11.436;2023-06-04T05:49:03;96227.19;;;25.62;32.93
13604;BME280;24578;48.264;11.436;2023-06-04T05:52:24;96215.84;;;26.20;32.23
13604;BME280;24578;48.264;11.436;2023-06-04T05:55:46;96227.09;;;26.54;31.15
13604;BME280;24578;48.264;11.436;2023-06-04T05:59:08;96233.81;;;26.96;30.11
13604;BME280;24578;48.264;11.436;2023-06-04T06:02:30;96229.41;;;27.15;29.66
13604;BME280;24578;48.264;11.436;2023-06-04T06:05:53;96230.81;;;27.17;28.37
13604;BME280;24578;48.264;11.436;2023-06-04T06:09:16;96225.44;;;27.24;28.70
13604;BME280;24578;48.264;11.436;2023-06-04T06:12:37;96237.31;;;27.22;28.91
13604;BME280;24578;48.264;11.436;2023-06-04T06:15:59;96236.44;;;27.53;29.34
13604;BME280;24578;48.264;11.436;2023-06-04T06:19:21;96222.91;;;28.17;27.61
13604;BME280;24578;48.264;11.436;2023-06-04T06:22:43;96234.41;;;28.48;27.93
13604;BME280;24578;48.264;11.436;2023-06-04T06:26:05;96238.44;;;28.51;27.21
13604;BME280;24578;48.264;11.436;2023-06-04T06:29:29;96232.38;;;28.93;26.19
13604;BME280;24578;48.264;11.436;2023-06-04T06:32:51;96239.88;;;29.26;26.91
13604;BME280;24578;48.264;11.436;2023-06-04T06:36:13;96248.69;;;29.62;24.91
13604;BME280;24578;48.264;11.436;2023-06-04T06:39:34;96247.22;;;29.43;25.74
13604;BME280;24578;48.264;11.436;2023-06-04T06:42:56;96256.13;;;29.49;25.23
13604;BME280;24578;48.264;11.436;2023-06-04T06:46:18;96256.69;;;29.74;25.75
13604;BME280;24578;48.264;11.436;2023-06-04T06:49:40;96249.13;;;30.07;25.19
13604;BME280;24578;48.264;11.436;2023-06-04T06:53:03;96254.97;;;30.04;23.53
13604;BME280;24578;48.264;11.436;2023-06-04T06:56:24;96257.22;;;29.29;25.01
13604;BME280;24578;48.264;11.436;2023-06-04T06:59:47;96256.81;;;29.80;24.86
13604;BME280;24578;48.264;11.436;2023-06-04T07:03:09;96242.75;;;30.20;24.94
13604;BME280;24578;48.264;11.436;2023-06-04T07:06:31;96245.28;;;30.84;24.05
13604;BME280;24578;48.264;11.436;2023-06-04T07:09:54;96248.53;;;31.33;23.67
13604;BME280;24578;48.264;11.436;2023-06-04T07:13:16;96240.09;;;31.75;23.23
13604;BME280;24578;48.264;11.436;2023-06-04T07:16:38;96239.50;;;31.90;22.45
13604;BME280;24578;48.264;11.436;2023-06-04T07:20:00;96236.34;;;31.76;22.87
13604;BME280;24578;48.264;11.436;2023-06-04T07:23:21;96240.91;;;31.76;23.14
13604;BME280;24578;48.264;11.436;2023-06-04T07:26:43;96239.59;;;31.78;22.66
13604;BME280;24578;48.264;11.436;2023-06-04T07:30:06;96236.06;;;31.21;23.67
13604;BME280;24578;48.264;11.436;2023-06-04T07:33:29;96242.69;;;31.53;23.60
13604;BME280;24578;48.264;11.436;2023-06-04T07:36:50;96230.88;;;31.32;23.37
13604;BME280;24578;48.264;11.436;2023-06-04T07:40:12;96239.22;;;31.52;23.45
13604;BME280;24578;48.264;11.436;2023-06-04T07:43:34;96234.75;;;31.41;24.15
13604;BME280;24578;48.264;11.436;2023-06-04T07:46:59;96240.78;;;32.27;23.46
13604;BME280;24578;48.264;11.436;2023-06-04T07:50:20;96239.28;;;32.86;22.27
13604;BME280;24578;48.264;11.436;2023-06-04T07:53:42;96240.63;;;32.61;22.64
13604;BME280;24578;48.264;11.436;2023-06-04T07:57:06;96242.69;;;32.09;23.01
13604;BME280;24578;48.264;11.436;2023-06-04T08:00:28;96241.91;;;32.14;22.70
13604;BME280;24578;48.264;11.436;2023-06-04T08:03:50;96243.38;;;32.44;23.26
13604;BME280;24578;48.264;11.436;2023-06-04T08:07:11;96236.88;;;32.89;22.12
13604;BME280;24578;48.264;11.436;2023-06-04T08:10:34;96234.03;;;32.74;22.71
13604;BME280;24578;48.264;11.436;2023-06-04T08:13:56;96248.28;;;32.52;22.69
13604;BME280;24578;48.264;11.436;2023-06-04T08:17:17;96236.84;;;32.34;22.91
13604;BME280;24578;48.264;11.436;2023-06-04T08:20:39;96235.25;;;32.88;22.66
13604;BME280;24578;48.264;11.436;2023-06-04T08:24:01;96234.56;;;32.98;22.65
13604;BME280;24578;48.264;11.436;2023-06-04T08:27:24;96239.28;;;32.86;22.35
13604;BME280;24578;48.264;11.436;2023-06-04T08:30:45;96239.63;;;32.94;22.19
13604;BME280;24578;48.264;11.436;2023-06-04T08:34:07;96238.78;;;32.89;22.91
13604;BME280;24578;48.264;11.436;2023-06-04T08:37:29;96234.38;;;33.43;22.34
13604;BME280;24578;48.264;11.436;2023-06-04T08:40:52;96242.16;;;33.82;21.62
13604;BME280;24578;48.264;11.436;2023-06-04T08:44:18;96238.00;;;34.02;21.07
13604;BME280;24578;48.264;11.436;2023-06-04T08:47:44;96230.13;;;34.53;20.76
13604;BME280;24578;48.264;11.436;2023-06-04T08:51:10;96239.13;;;34.16;21.33
13604;BME280;24578;48.264;11.436;2023-06-04T08:54:32;96238.91;;;33.80;21.36
13604;BME280;24578;48.264;11.436;2023-06-04T08:57:54;96235.22;;;33.48;21.13
13604;BME280;24578;48.264;11.436;2023-06-04T09:01:16;96238.19;;;32.15;22.31
13604;BME280;24578;48.264;11.436;2023-06-04T09:04:39;96236.53;;;32.53;22.60
13604;BME280;24578;48.264;11.436;2023-06-04T09:08:04;96233.75;;;32.98;21.63
13604;BME280;24578;48.264;11.436;2023-06-04T09:11:33;96236.47;;;33.03;21.17
13604;BME280;24578;48.264;11.436;2023-06-04T09:14:56;96238.13;;;33.42;21.47
13604;BME280;24578;48.264;11.436;2023-06-04T09:18:18;96237.94;;;33.91;20.99
13604;BME280;24578;48.264;11.436;2023-06-04T09:21:57;96239.84;;;33.58;20.33
13604;BME280;24578;48.264;11.436;2023-06-04T09:25:22;96230.25;;;33.30;21.34
13604;BME280;24578;48.264;11.436;2023-06-04T09:28:45;96230.97;;;33.52;20.06
13604;BME280;24578;48.264;11.436;2023-06-04T09:32:07;96228.28;;;32.87;21.21
13604;BME280;24578;48.264;11.436;2023-06-04T09:35:29;96236.59;;;33.89;21.61
13604;BME280;24578;48.264;11.436;2023-06-04T09:38:51;96237.63;;;33.88;18.94
13604;BME280;24578;48.264;11.436;2023-06-04T09:42:12;96236.09;;;33.54;19.91
13604;BME280;24578;48.264;11.436;2023-06-04T09:45:35;96233.38;;;33.49;20.99
13604;BME280;24578;48.264;11.436;2023-06-04T09:49:02;96219.03;;;33.00;20.58
13604;BME280;24578;48.264;11.436;2023-06-04T09:52:32;96216.81;;;32.64;20.80
13604;BME280;24578;48.264;11.436;2023-06-04T09:56:00;96227.47;;;33.19;21.47
13604;BME280;24578;48.264;11.436;2023-06-04T09:59:22;96229.84;;;33.43;19.65
13604;BME280;24578;48.264;11.436;2023-06-04T10:02:45;96227.25;;;33.21;20.42
13604;BME280;24578;48.264;11.436;2023-06-04T10:06:10;96228.78;;;33.49;20.01
13604;BME280;24578;48.264;11.436;2023-06-04T10:09:35;96234.63;;;33.79;18.92
13604;BME280;24578;48.264;11.436;2023-06-04T10:13:13;96232.16;;;33.72;20.31
13604;BME280;24578;48.264;11.436;2023-06-04T10:16:37;96236.00;;;33.44;19.27
13604;BME280;24578;48.264;11.436;2023-06-04T10:20:01;96225.06;;;33.18;19.71
13604;BME280;24578;48.264;11.436;2023-06-04T10:23:25;96227.88;;;33.71;19.14
13604;BME280;24578;48.264;11.436;2023-06-04T10:26:47;96228.19;;;33.80;20.16
13604;BME280;24578;48.264;11.436;2023-06-04T10:30:10;96229.81;;;33.81;19.13
13604;BME280;24578;48.264;11.436;2023-06-04T10:33:32;96228.38;;;33.63;19.01
13604;BME280;24578;48.264;11.436;2023-06-04T10:36:54;96225.31;;;33.49;20.08
13604;BME280;24578;48.264;11.436;2023-06-04T10:40:16;96222.41;;;34.04;18.95
13604;BME280;24578;48.264;11.436;2023-06-04T10:43:38;96225.09;;;33.98;20.18
13604;BME280;24578;48.264;11.436;2023-06-04T10:47:01;96233.63;;;33.15;20.33
13604;BME280;24578;48.264;11.436;2023-06-04T10:50:23;96215.78;;;32.93;19.97
13604;BME280;24578;48.264;11.436;2023-06-04T10:53:44;96214.59;;;33.49;20.56
13604;BME280;24578;48.264;11.436;2023-06-04T10:57:14;96214.34;;;33.18;20.36
13604;BME280;24578;48.264;11.436;2023-06-04T11:00:40;96217.56;;;33.52;20.72
13604;BME280;24578;48.264;11.436;2023-06-04T11:04:03;96213.19;;;31.48;21.42
13604;BME280;24578;48.264;11.436;2023-06-04T11:07:24;96212.91;;;31.66;22.19
13604;BME280;24578;48.264;11.436;2023-06-04T11:10:46;96204.03;;;32.44;21.13
13604;BME280;24578;48.264;11.436;2023-06-04T11:14:09;96215.13;;;33.18;20.72
13604;BME280;24578;48.264;11.436;2023-06-04T11:17:32;96217.75;;;31.13;22.46
13604;BME280;24578;48.264;11.436;2023-06-04T11:21:00;96221.06;;;30.57;22.82
13604;BME280;24578;48.264;11.436;2023-06-04T11:24:23;96213.19;;;31.65;22.28
13604;BME280;24578;48.264;11.436;2023-06-04T11:27:45;96208.97;;;31.52;21.79
13604;BME280;24578;48.264;11.436;2023-06-04T11:31:07;96213.28;;;30.15;23.39
13604;BME280;24578;48.264;11.436;2023-06-04T11:34:30;96215.16;;;29.90;23.32
13604;BME280;24578;48.264;11.436;2023-06-04T11:37:54;96202.16;;;31.10;23.03
13604;BME280;24578;48.264;11.436;2023-06-04T11:41:17;96202.28;;;32.33;21.07
13604;BME280;24578;48.264;11.436;2023-06-04T11:44:38;96204.91;;;33.10;20.79
13604;BME280;24578;48.264;11.436;2023-06-04T11:48:01;96207.31;;;33.44;20.83
13604;BME280;24578;48.264;11.436;2023-06-04T11:51:24;96200.59;;;33.42;19.29
13604;BME280;24578;48.264;11.436;2023-06-04T11:54:47;96200.69;;;33.57;20.60
13604;BME280;24578;48.264;11.436;2023-06-04T11:58:09;96185.91;;;33.97;19.78
13604;BME280;24578;48.264;11.436;2023-06-04T12:01:32;96183.13;;;34.51;18.75
13604;BME280;24578;48.264;11.436;2023-06-04T12:04:54;96176.88;;;34.40;19.58
13604;BME280;24578;48.264;11.436;2023-06-04T12:08:15;96183.81;;;34.20;19.03
13604;BME280;24578;48.264;11.436;2023-06-04T12:11:37;96190.50;;;33.54;19.43
13604;BME280;24578;48.264;11.436;2023-06-04T12:14:59;96181.66;;;33.59;20.32
13604;BME280;24578;48.264;11.436;2023-06-04T12:18:24;96189.34;;;33.45;19.47
13604;BME280;24578;48.264;11.436;2023-06-04T12:21:46;96190.00;;;33.62;19.55
13604;BME280;24578;48.264;11.436;2023-06-04T12:25:08;96188.44;;;33.29;19.39
13604;BME280;24578;48.264;11.436;2023-06-04T12:28:30;96184.81;;;33.45;19.05
13604;BME280;24578;48.264;11.436;2023-06-04T12:32:02;96182.16;;;33.98;19.15
13604;BME280;24578;48.264;11.436;2023-06-04T12:35:24;96184.13;;;34.24;19.67
13604;BME280;24578;48.264;11.436;2023-06-04T12:38:46;96186.75;;;34.08;18.65
13604;BME280;24578;48.264;11.436;2023-06-04T12:42:09;96169.56;;;33.56;19.77
13604;BME280;24578;48.264;11.436;2023-06-04T12:45:30;96185.16;;;33.21;19.90
13604;BME280;24578;48.264;11.436;2023-06-04T12:48:53;96179.66;;;33.01;20.43
13604;BME280;24578;48.264;11.436;2023-06-04T12:52:16;96175.16;;;33.12;20.59
13604;BME280;24578;48.264;11.436;2023-06-04T12:55:38;96179.44;;;33.45;20.00
13604;BME280;24578;48.264;11.436;2023-06-04T12:59:00;96169.50;;;33.46;19.94
13604;BME280;24578;48.264;11.436;2023-06-04T13:02:22;96155.38;;;34.24;19.55
13604;BME280;24578;48.264;11.436;2023-06-04T13:05:44;96155.22;;;34.83;18.75
13604;BME280;24578;48.264;11.436;2023-06-04T13:09:06;96158.19;;;35.07;18.07
13604;BME280;24578;48.264;11.436;2023-06-04T13:12:30;96153.28;;;34.42;18.61
13604;BME280;24578;48.264;11.436;2023-06-04T13:15:52;96159.88;;;32.79;19.25
13604;BME280;24578;48.264;11.436;2023-06-04T13:19:14;96161.16;;;31.72;20.51
13604;BME280;24578;48.264;11.436;2023-06-04T13:22:35;96147.66;;;32.07;20.68
13604;BME280;24578;48.264;11.436;2023-06-04T13:25:57;96150.50;;;32.49;20.50
13604;BME280;24578;48.264;11.436;2023-06-04T13:29:19;96156.22;;;32.09;20.55
13604;BME280;24578;48.264;11.436;2023-06-04T13:32:43;96156.84;;;32.16;21.59
13604;BME280;24578;48.264;11.436;2023-06-04T13:36:05;96148.38;;;32.52;20.36
13604;BME280;24578;48.264;11.436;2023-06-04T13:39:27;96159.44;;;32.33;20.61
13604;BME280;24578;48.264;11.436;2023-06-04T13:42:49;96161.56;;;31.86;21.10
13604;BME280;24578;48.264;11.436;2023-06-04T13:46:11;96157.69;;;31.38;21.72
13604;BME280;24578;48.264;11.436;2023-06-04T13:49:34;96166.69;;;30.63;22.81
13604;BME280;24578;48.264;11.436;2023-06-04T13:52:56;96165.09;;;29.81;23.55
13604;BME280;24578;48.264;11.436;2023-06-04T13:56:18;96161.19;;;29.12;24.40
13604;BME280;24578;48.264;11.436;2023-06-04T13:59:40;96172.16;;;28.92;24.44
13604;BME280;24578;48.264;11.436;2023-06-04T14:03:01;96171.25;;;28.98;25.15
13604;BME280;24578;48.264;11.436;2023-06-04T14:06:23;96172.09;;;29.58;24.34
13604;BME280;24578;48.264;11.436;2023-06-04T14:09:45;96177.75;;;29.26;23.44
13604;BME280;24578;48.264;11.436;2023-06-04T14:13:08;96173.19;;;28.48;25.10
13604;BME280;24578;48.264;11.436;2023-06-04T14:16:30;96168.22;;;28.03;24.51
13604;BME280;24578;48.264;11.436;2023-06-04T14:19:51;96167.44;;;28.02;25.78
13604;BME280;24578;48.264;11.436;2023-06-04T14:23:13;96174.81;;;28.00;26.62
13604;BME280;24578;48.264;11.436;2023-06-04T14:26:35;96175.19;;;27.85;25.51
13604;BME280;24578;48.264;11.436;2023-06-04T14:29:57;96165.03;;;27.38;25.69
13604;BME280;24578;48.264;11.436;2023-06-04T14:33:18;96171.59;;;27.10;26.17
13604;BME280;24578;48.264;11.436;2023-06-04T14:36:40;96170.06;;;27.21;27.24
13604;BME280;24578;48.264;11.436;2023-06-04T14:40:02;96161.84;;;27.29;26.94
13604;BME280;24578;48.264;11.436;2023-06-04T14:43:24;96150.97;;;27.75;27.47
13604;BME280;24578;48.264;11.436;2023-06-04T14:46:46;96152.63;;;27.88;25.20
13604;BME280;24578;48.264;11.436;2023-06-04T14:50:08;96146.00;;;27.60;26.41
13604;BME280;24578;48.264;11.436;2023-06-04T14:53:31;96151.91;;;27.18;26.52
13604;BME280;24578;48.264;11.436;2023-06-04T14:56:53;96155.63;;;26.92;26.88
13604;BME280;24578;48.264;11.436;2023-06-04T15:00:14;96146.13;;;26.77;27.07
13604;BME280;24578;48.264;11.436;2023-06-04T15:03:39;96148.94;;;26.82;27.49
13604;BME280;24578;48.264;11.436;2023-06-04T15:07:02;96149.28;;;26.93;27.41
13604;BME280;24578;48.264;11.436;2023-06-04T15:10:24;96131.25;;;27.01;27.02
13604;BME280;24578;48.264;11.436;2023-06-04T15:13:46;96136.19;;;26.66;28.00
13604;BME280;24578;48.264;11.436;2023-06-04T15:17:08;96131.63;;;26.48;27.23
13604;BME280;24578;48.264;11.436;2023-06-04T15:20:31;96142.75;;;26.31;27.87
13604;BME280;24578;48.264;11.436;2023-06-04T15:23:52;96152.66;;;25.97;28.58
13604;BME280;24578;48.264;11.436;2023-06-04T15:27:14;96147.03;;;25.80;28.12
13604;BME280;24578;48.264;11.436;2023-06-04T15:30:36;96158.13;;;25.57;28.93
13604;BME280;24578;48.264;11.436;2023-06-04T15:33:57;96165.47;;;25.41;28.76
13604;BME280;24578;48.264;11.436;2023-06-04T15:37:19;96158.72;;;25.38;28.37
13604;BME280;24578;48.264;11.436;2023-06-04T15:40:41;96152.03;;;25.22;28.95
13604;BME280;24578;48.264;11.436;2023-06-04T15:44:03;96149.16;;;25.24;29.25
13604;BME280;24578;48.264;11.436;2023-06-04T15:47:25;96151.03;;;25.17;29.26
13604;BME280;24578;48.264;11.436;2023-06-04T15:50:46;96149.81;;;25.06;28.63
13604;BME280;24578;48.264;11.436;2023-06-04T15:54:09;96152.25;;;25.01;29.57
13604;BME280;24578;48.264;11.436;2023-06-04T15:57:30;96155.50;;;24.89;28.99
13604;BME280;24578;48.264;11.436;2023-06-04T16:00:53;96154.09;;;24.73;29.38
13604;BME280;24578;48.264;11.436;2023-06-04T16:04:15;96156.53;;;24.75;29.86
13604;BME280;24578;48.264;11.436;2023-06-04T16:07:37;96152.44;;;24.59;29.39
13604;BME280;24578;48.264;11.436;2023-06-04T16:10:59;96160.53;;;24.44;29.93
13604;BME280;24578;48.264;11.436;2023-06-04T16:14:20;96153.00;;;24.41;30.15
13604;BME280;24578;48.264;11.436;2023-06-04T16:17:42;96155.00;;;24.39;30.24
13604;BME280;24578;48.264;11.436;2023-06-04T16:21:08;96156.84;;;24.38;30.29
13604;BME280;24578;48.264;11.436;2023-06-04T16:24:30;96153.56;;;24.23;30.19
13604;BME280;24578;48.264;11.436;2023-06-04T16:27:51;96147.03;;;24.12;30.90
13604;BME280;24578;48.264;11.436;2023-06-04T16:31:14;96151.09;;;24.14;31.05
13604;BME280;24578;48.264;11.436;2023-06-04T16:34:36;96149.47;;;24.13;30.92
13604;BME280;24578;48.264;11.436;2023-06-04T16:37:58;96143.75;;;24.10;30.62
13604;BME280;24578;48.264;11.436;2023-06-04T16:41:20;96131.91;;;23.99;30.82
13604;BME280;24578;48.264;11.436;2023-06-04T16:44:42;96138.38;;;23.90;32.06
13604;BME280;24578;48.264;11.436;2023-06-04T16:48:03;96133.47;;;23.86;31.99
13604;BME280;24578;48.264;11.436;2023-06-04T16:51:25;96140.00;;;23.84;32.61
13604;BME280;24578;48.264;11.436;2023-06-04T16:54:47;96139.53;;;23.74;32.41
13604;BME280;24578;48.264;11.436;2023-06-04T16:58:08;96135.75;;;23.48;32.71
13604;BME280;24578;48.264;11.436;2023-06-04T17:01:30;96132.03;;;23.35;32.53
13604;BME280;24578;48.264;11.436;2023-06-04T17:04:52;96136.88;;;23.32;32.66
13604;BME280;24578;48.264;11.436;2023-06-04T17:08:15;96134.00;;;23.26;33.23
13604;BME280;24578;48.264;11.436;2023-06-04T17:11:37;96134.13;;;23.18;33.17
13604;BME280;24578;48.264;11.436;2023-06-04T17:15:00;96138.69;;;23.03;33.26
13604;BME280;24578;48.264;11.436;2023-06-04T17:18:22;96138.19;;;22.92;33.52
13604;BME280;24578;48.264;11.436;2023-06-04T17:21:44;96147.31;;;22.90;34.04
13604;BME280;24578;48.264;11.436;2023-06-04T17:25:06;96146.00;;;22.79;34.68
13604;BME280;24578;48.264;11.436;2023-06-04T17:28:28;96150.44;;;22.72;34.39
13604;BME280;24578;48.264;11.436;2023-06-04T17:31:50;96153.75;;;22.59;34.99
13604;BME280;24578;48.264;11.436;2023-06-04T17:35:13;96150.22;;;22.51;34.70
13604;BME280;24578;48.264;11.436;2023-06-04T17:38:35;96150.44;;;22.35;35.33